sensor_id;sensor_type;location;lat;lon;timestamp;temperature;humidity
1668;DHT22;832;47.956;7.864;2022-08-05T00:01:18;24.50;1.00
1668;DHT22;832;47.956;7.864;2022-08-05T00:03:46;24.50;1.00
1668;DHT22;832;47.956;7.864;2022-08-05T00:06:11;24.50;1.00
1668;DHT22;832;47.956;7.864;2022-08-05T00:08:37;24.50;1.00
1668;DHT22;832;47.956;7.864;2022-08-05T00:11:06;24.50;1.00
1668;DHT22;832;47.956;7.864;2022-08-05T00:13:33;24.60;1.00
1668;DHT22;832;47.956;7.864;2022-08-05T00:15:59;24.70;1.00
1668;DHT22;832;47.956;7.864;2022-08-05T00:18:24;24.70;1.00
1668;DHT22;832;47.956;7.864;2022-08-05T00:20:51;24.70;1.00
1668;DHT22;832;47.956;7.864;2022-08-05T00:23:17;24.70;1.00
1668;DHT22;832;47.956;7.864;2022-08-05T00:25:43;24.70;1.00
1668;DHT22;832;47.956;7.864;2022-08-05T00:28:08;24.70;1.00
1668;DHT22;832;47.956;7.864;2022-08-05T00:30:34;24.60;1.00
1668;DHT22;832;47.956;7.864;2022-08-05T00:32:59;24.60;1.00
1668;DHT22;832;47.956;7.864;2022-08-05T00:35:25;24.60;1.00
1668;DHT22;832;47.956;7.864;2022-08-05T00:37:51;24.70;1.00
1668;DHT22;832;47.956;7.864;2022-08-05T00:40:17;24.70;1.00
1668;DHT22;832;47.956;7.864;2022-08-05T00:42:42;24.70;1.00
1668;DHT22;832;47.956;7.864;2022-08-05T00:45:08;24.70;1.00
1668;DHT22;832;47.956;7.864;2022-08-05T00:47:34;24.50;1.00
1668;DHT22;832;47.956;7.864;2022-08-05T00:50:00;24.40;1.00
1668;DHT22;832;47.956;7.864;2022-08-05T00:52:26;24.40;1.00
1668;DHT22;832;47.956;7.864;2022-08-05T00:54:51;24.30;1.00
1668;DHT22;832;47.956;7.864;2022-08-05T00:57:17;24.40;1.00
1668;DHT22;832;47.956;7.864;2022-08-05T00:59:43;24.30;1.00
1668;DHT22;832;47.956;7.864;2022-08-05T01:02:08;24.30;1.00
1668;DHT22;832;47.956;7.864;2022-08-05T01:04:34;24.30;1.00
1668;DHT22;832;47.956;7.864;2022-08-05T01:07:00;24.20;1.00
1668;DHT22;832;47.956;7.864;2022-08-05T01:09:25;24.10;1.00
1668;DHT22;832;47.956;7.864;2022-08-05T01:11:53;24.20;1.00
1668;DHT22;832;47.956;7.864;2022-08-05T01:14:32;24.30;1.00
1668;DHT22;832;47.956;7.864;2022-08-05T01:17:03;24.40;1.00
1668;DHT22;832;47.956;7.864;2022-08-05T01:30:28;24.30;1.00
1668;DHT22;832;47.956;7.864;2022-08-05T01:32:58;24.40;1.00
1668;DHT22;832;47.956;7.864;2022-08-05T01:35:26;24.40;1.00
1668;DHT22;832;47.956;7.864;2022-08-05T01:37:54;24.40;1.00
1668;DHT22;832;47.956;7.864;2022-08-05T01:40:24;24.40;1.00
1668;DHT22;832;47.956;7.864;2022-08-05T01:42:52;24.40;1.00
1668;DHT22;832;47.956;7.864;2022-08-05T01:45:20;24.30;1.00
1668;DHT22;832;47.956;7.864;2022-08-05T01:47:48;24.20;1.00
1668;DHT22;832;47.956;7.864;2022-08-05T01:50:22;24.40;1.00
1668;DHT22;832;47.956;7.864;2022-08-05T01:52:49;24.40;1.00
1668;DHT22;832;47.956;7.864;2022-08-05T01:55:19;24.40;1.00
1668;DHT22;832;47.956;7.864;2022-08-05T01:57:47;24.20;1.00
1668;DHT22;832;47.956;7.864;2022-08-05T02:00:14;24.10;1.00
1668;DHT22;832;47.956;7.864;2022-08-05T02:02:44;24.20;1.00
1668;DHT22;832;47.956;7.864;2022-08-05T02:05:13;24.20;1.00
1668;DHT22;832;47.956;7.864;2022-08-05T02:07:40;24.20;1.00
1668;DHT22;832;47.956;7.864;2022-08-05T02:10:08;24.30;1.00
1668;DHT22;832;47.956;7.864;2022-08-05T02:12:49;24.30;1.00
1668;DHT22;832;47.956;7.864;2022-08-05T02:15:27;24.30;1.00
1668;DHT22;832;47.956;7.864;2022-08-05T02:18:26;24.30;1.00
1668;DHT22;832;47.956;7.864;2022-08-05T02:21:14;24.30;1.00
1668;DHT22;832;47.956;7.864;2022-08-05T02:23:42;24.10;1.00
1668;DHT22;832;47.956;7.864;2022-08-05T02:26:09;24.10;1.00
1668;DHT22;832;47.956;7.864;2022-08-05T02:28:40;24.10;1.00
1668;DHT22;832;47.956;7.864;2022-08-05T02:31:14;24.10;1.00
1668;DHT22;832;47.956;7.864;2022-08-05T02:33:56;24.00;1.00
1668;DHT22;832;47.956;7.864;2022-08-05T02:36:23;23.90;1.00
1668;DHT22;832;47.956;7.864;2022-08-05T02:38:49;23.90;1.00
1668;DHT22;832;47.956;7.864;2022-08-05T02:41:17;23.90;1.00
1668;DHT22;832;47.956;7.864;2022-08-05T02:43:45;23.90;1.00
1668;DHT22;832;47.956;7.864;2022-08-05T02:46:14;23.80;1.00
1668;DHT22;832;47.956;7.864;2022-08-05T02:48:40;23.70;1.00
1668;DHT22;832;47.956;7.864;2022-08-05T02:51:07;23.60;1.00
1668;DHT22;832;47.956;7.864;2022-08-05T02:53:34;23.50;1.00
1668;DHT22;832;47.956;7.864;2022-08-05T02:56:02;23.40;1.00
1668;DHT22;832;47.956;7.864;2022-08-05T02:58:28;23.40;1.00
1668;DHT22;832;47.956;7.864;2022-08-05T03:00:56;23.40;1.00
1668;DHT22;832;47.956;7.864;2022-08-05T03:03:23;23.30;1.00
1668;DHT22;832;47.956;7.864;2022-08-05T03:05:51;23.30;1.00
1668;DHT22;832;47.956;7.864;2022-08-05T03:08:17;23.10;1.00
1668;DHT22;832;47.956;7.864;2022-08-05T03:10:44;23.20;1.00
1668;DHT22;832;47.956;7.864;2022-08-05T03:13:16;23.20;1.00
1668;DHT22;832;47.956;7.864;2022-08-05T03:15:43;23.20;1.00
1668;DHT22;832;47.956;7.864;2022-08-05T03:18:09;23.10;1.00
1668;DHT22;832;47.956;7.864;2022-08-05T03:20:35;23.00;1.00
1668;DHT22;832;47.956;7.864;2022-08-05T03:23:01;23.00;1.00
1668;DHT22;832;47.956;7.864;2022-08-05T03:25:29;23.00;1.00
1668;DHT22;832;47.956;7.864;2022-08-05T03:27:56;22.90;1.00
1668;DHT22;832;47.956;7.864;2022-08-05T03:30:22;22.90;1.00
1668;DHT22;832;47.956;7.864;2022-08-05T03:32:48;23.00;1.00
1668;DHT22;832;47.956;7.864;2022-08-05T03:35:14;23.10;1.00
1668;DHT22;832;47.956;7.864;2022-08-05T03:37:40;23.10;1.00
1668;DHT22;832;47.956;7.864;2022-08-05T03:40:06;23.00;1.00
1668;DHT22;832;47.956;7.864;2022-08-05T03:42:34;23.00;1.00
1668;DHT22;832;47.956;7.864;2022-08-05T03:45:00;23.00;1.00
1668;DHT22;832;47.956;7.864;2022-08-05T03:47:25;23.00;1.00
1668;DHT22;832;47.956;7.864;2022-08-05T03:49:51;22.90;1.00
1668;DHT22;832;47.956;7.864;2022-08-05T03:52:28;22.80;1.00
1668;DHT22;832;47.956;7.864;2022-08-05T03:55:00;22.70;1.00
1668;DHT22;832;47.956;7.864;2022-08-05T03:57:29;22.60;1.00
1668;DHT22;832;47.956;7.864;2022-08-05T04:00:03;22.60;1.00
1668;DHT22;832;47.956;7.864;2022-08-05T04:02:31;22.50;1.00
1668;DHT22;832;47.956;7.864;2022-08-05T04:04:59;22.60;1.00
1668;DHT22;832;47.956;7.864;2022-08-05T04:07:25;22.60;1.00
1668;DHT22;832;47.956;7.864;2022-08-05T04:09:52;22.50;1.00
1668;DHT22;832;47.956;7.864;2022-08-05T04:12:18;22.50;1.00
1668;DHT22;832;47.956;7.864;2022-08-05T04:14:44;22.50;1.00
1668;DHT22;832;47.956;7.864;2022-08-05T04:17:10;22.40;1.00
1668;DHT22;832;47.956;7.864;2022-08-05T04:19:43;22.50;1.00
1668;DHT22;832;47.956;7.864;2022-08-05T04:22:09;22.50;1.00
1668;DHT22;832;47.956;7.864;2022-08-05T04:24:36;22.50;1.00
1668;DHT22;832;47.956;7.864;2022-08-05T04:27:02;22.50;1.00
1668;DHT22;832;47.956;7.864;2022-08-05T04:29:28;22.40;1.00
1668;DHT22;832;47.956;7.864;2022-08-05T04:31:53;22.40;1.00
1668;DHT22;832;47.956;7.864;2022-08-05T04:34:19;22.40;1.00
1668;DHT22;832;47.956;7.864;2022-08-05T04:36:44;22.50;1.00
1668;DHT22;832;47.956;7.864;2022-08-05T04:39:10;22.50;1.00
1668;DHT22;832;47.956;7.864;2022-08-05T04:41:35;22.40;1.00
1668;DHT22;832;47.956;7.864;2022-08-05T04:44:01;22.40;1.00
1668;DHT22;832;47.956;7.864;2022-08-05T04:46:27;22.40;1.00
1668;DHT22;832;47.956;7.864;2022-08-05T04:48:52;22.50;1.00
1668;DHT22;832;47.956;7.864;2022-08-05T04:51:18;22.50;1.00
1668;DHT22;832;47.956;7.864;2022-08-05T04:53:44;22.50;1.00
1668;DHT22;832;47.956;7.864;2022-08-05T04:56:09;22.50;1.00
1668;DHT22;832;47.956;7.864;2022-08-05T04:58:35;22.50;1.00
1668;DHT22;832;47.956;7.864;2022-08-05T05:01:01;22.70;1.00
1668;DHT22;832;47.956;7.864;2022-08-05T05:03:26;22.80;1.00
1668;DHT22;832;47.956;7.864;2022-08-05T05:05:52;22.80;1.00
1668;DHT22;832;47.956;7.864;2022-08-05T05:08:17;22.90;1.00
1668;DHT22;832;47.956;7.864;2022-08-05T05:10:45;22.90;1.00
1668;DHT22;832;47.956;7.864;2022-08-05T05:13:14;22.90;1.00
1668;DHT22;832;47.956;7.864;2022-08-05T05:15:41;23.00;1.00
1668;DHT22;832;47.956;7.864;2022-08-05T05:18:07;23.10;1.00
1668;DHT22;832;47.956;7.864;2022-08-05T05:20:34;23.10;1.00
1668;DHT22;832;47.956;7.864;2022-08-05T05:23:01;23.10;1.00
1668;DHT22;832;47.956;7.864;2022-08-05T05:25:29;23.10;1.00
1668;DHT22;832;47.956;7.864;2022-08-05T05:27:55;23.10;1.00
1668;DHT22;832;47.956;7.864;2022-08-05T05:30:21;23.10;1.00
1668;DHT22;832;47.956;7.864;2022-08-05T05:32:47;23.10;1.00
1668;DHT22;832;47.956;7.864;2022-08-05T05:35:13;23.10;1.00
1668;DHT22;832;47.956;7.864;2022-08-05T05:38:05;23.20;1.00
1668;DHT22;832;47.956;7.864;2022-08-05T05:40:32;23.20;1.00
1668;DHT22;832;47.956;7.864;2022-08-05T05:42:58;23.20;1.00
1668;DHT22;832;47.956;7.864;2022-08-05T05:45:24;23.20;1.00
1668;DHT22;832;47.956;7.864;2022-08-05T05:47:50;23.30;1.00
1668;DHT22;832;47.956;7.864;2022-08-05T05:50:17;23.40;1.00
1668;DHT22;832;47.956;7.864;2022-08-05T05:52:43;23.40;1.00
1668;DHT22;832;47.956;7.864;2022-08-05T05:55:10;23.40;1.00
1668;DHT22;832;47.956;7.864;2022-08-05T05:57:37;23.50;1.00
1668;DHT22;832;47.956;7.864;2022-08-05T06:00:05;23.50;1.00
1668;DHT22;832;47.956;7.864;2022-08-05T06:02:31;23.50;1.00
1668;DHT22;832;47.956;7.864;2022-08-05T06:04:56;23.60;1.00
1668;DHT22;832;47.956;7.864;2022-08-05T06:07:22;23.60;1.00
1668;DHT22;832;47.956;7.864;2022-08-05T06:09:47;23.60;1.00
1668;DHT22;832;47.956;7.864;2022-08-05T06:12:13;23.70;1.00
1668;DHT22;832;47.956;7.864;2022-08-05T06:14:39;23.70;1.00
1668;DHT22;832;47.956;7.864;2022-08-05T06:17:06;23.70;1.00
1668;DHT22;832;47.956;7.864;2022-08-05T06:19:32;23.70;1.00
1668;DHT22;832;47.956;7.864;2022-08-05T06:21:57;23.70;1.00
1668;DHT22;832;47.956;7.864;2022-08-05T06:24:23;23.90;1.00
1668;DHT22;832;47.956;7.864;2022-08-05T06:26:49;24.00;1.00
1668;DHT22;832;47.956;7.864;2022-08-05T06:29:14;24.20;1.00
1668;DHT22;832;47.956;7.864;2022-08-05T06:31:40;24.40;1.00
1668;DHT22;832;47.956;7.864;2022-08-05T06:34:05;24.40;1.00
1668;DHT22;832;47.956;7.864;2022-08-05T06:36:31;24.50;1.00
1668;DHT22;832;47.956;7.864;2022-08-05T06:38:57;24.70;1.00
1668;DHT22;832;47.956;7.864;2022-08-05T06:41:22;24.80;1.00
1668;DHT22;832;47.956;7.864;2022-08-05T06:43:48;25.00;1.00
1668;DHT22;832;47.956;7.864;2022-08-05T06:46:14;25.10;1.00
1668;DHT22;832;47.956;7.864;2022-08-05T06:48:40;25.20;1.00
1668;DHT22;832;47.956;7.864;2022-08-05T06:51:05;25.30;1.00
1668;DHT22;832;47.956;7.864;2022-08-05T06:53:31;25.30;1.00
1668;DHT22;832;47.956;7.864;2022-08-05T06:55:58;25.30;1.00
1668;DHT22;832;47.956;7.864;2022-08-05T06:58:25;25.30;1.00
1668;DHT22;832;47.956;7.864;2022-08-05T07:00:51;25.30;1.00
1668;DHT22;832;47.956;7.864;2022-08-05T07:03:17;25.30;1.00
1668;DHT22;832;47.956;7.864;2022-08-05T07:05:43;25.30;1.00
1668;DHT22;832;47.956;7.864;2022-08-05T07:08:08;25.30;1.00
1668;DHT22;832;47.956;7.864;2022-08-05T07:10:34;25.30;1.00
1668;DHT22;832;47.956;7.864;2022-08-05T07:13:00;25.30;1.00
1668;DHT22;832;47.956;7.864;2022-08-05T07:15:44;25.30;1.00
1668;DHT22;832;47.956;7.864;2022-08-05T07:18:28;25.30;1.00
1668;DHT22;832;47.956;7.864;2022-08-05T07:20:54;25.30;1.00
1668;DHT22;832;47.956;7.864;2022-08-05T07:23:19;25.30;1.00
1668;DHT22;832;47.956;7.864;2022-08-05T07:25:45;25.30;1.00
1668;DHT22;832;47.956;7.864;2022-08-05T07:28:11;25.30;1.00
1668;DHT22;832;47.956;7.864;2022-08-05T07:30:37;25.30;1.00
1668;DHT22;832;47.956;7.864;2022-08-05T07:33:04;25.30;1.00
1668;DHT22;832;47.956;7.864;2022-08-05T07:35:30;25.30;1.00
1668;DHT22;832;47.956;7.864;2022-08-05T07:37:56;25.40;1.00
1668;DHT22;832;47.956;7.864;2022-08-05T07:40:22;25.60;1.00
1668;DHT22;832;47.956;7.864;2022-08-05T07:42:47;25.70;1.00
1668;DHT22;832;47.956;7.864;2022-08-05T07:45:13;25.80;1.00
1668;DHT22;832;47.956;7.864;2022-08-05T07:47:40;25.90;1.00
1668;DHT22;832;47.956;7.864;2022-08-05T07:50:07;25.90;1.00
1668;DHT22;832;47.956;7.864;2022-08-05T07:52:41;26.00;1.00
1668;DHT22;832;47.956;7.864;2022-08-05T07:55:08;26.10;1.00
1668;DHT22;832;47.956;7.864;2022-08-05T07:57:35;26.20;1.00
1668;DHT22;832;47.956;7.864;2022-08-05T08:00:03;26.30;1.00
1668;DHT22;832;47.956;7.864;2022-08-05T08:02:29;26.30;1.00
1668;DHT22;832;47.956;7.864;2022-08-05T08:04:55;26.40;1.00
1668;DHT22;832;47.956;7.864;2022-08-05T08:07:21;26.40;1.00
1668;DHT22;832;47.956;7.864;2022-08-05T08:09:48;26.40;1.00
1668;DHT22;832;47.956;7.864;2022-08-05T08:12:14;26.60;1.00
1668;DHT22;832;47.956;7.864;2022-08-05T08:14:43;26.70;1.00
1668;DHT22;832;47.956;7.864;2022-08-05T08:17:08;26.70;1.00
1668;DHT22;832;47.956;7.864;2022-08-05T08:19:41;26.70;1.00
1668;DHT22;832;47.956;7.864;2022-08-05T08:22:07;26.70;1.00
1668;DHT22;832;47.956;7.864;2022-08-05T08:24:33;26.90;1.00
1668;DHT22;832;47.956;7.864;2022-08-05T08:27:00;26.90;1.00
1668;DHT22;832;47.956;7.864;2022-08-05T08:29:26;26.90;1.00
1668;DHT22;832;47.956;7.864;2022-08-05T08:31:51;27.10;1.00
1668;DHT22;832;47.956;7.864;2022-08-05T08:34:19;27.20;1.00
1668;DHT22;832;47.956;7.864;2022-08-05T08:36:45;27.30;1.00
1668;DHT22;832;47.956;7.864;2022-08-05T08:39:11;27.20;1.00
1668;DHT22;832;47.956;7.864;2022-08-05T08:41:37;27.30;1.00
1668;DHT22;832;47.956;7.864;2022-08-05T08:44:06;27.40;1.00
1668;DHT22;832;47.956;7.864;2022-08-05T08:46:33;27.40;1.00
1668;DHT22;832;47.956;7.864;2022-08-05T08:49:01;27.50;1.00
1668;DHT22;832;47.956;7.864;2022-08-05T08:51:31;27.70;1.00
1668;DHT22;832;47.956;7.864;2022-08-05T08:53:57;27.70;1.00
1668;DHT22;832;47.956;7.864;2022-08-05T08:56:23;27.70;1.00
1668;DHT22;832;47.956;7.864;2022-08-05T08:58:49;27.80;1.00
1668;DHT22;832;47.956;7.864;2022-08-05T09:01:16;28.00;1.00
1668;DHT22;832;47.956;7.864;2022-08-05T09:03:46;28.20;1.00
1668;DHT22;832;47.956;7.864;2022-08-05T09:06:12;28.30;1.00
1668;DHT22;832;47.956;7.864;2022-08-05T09:08:37;28.30;1.00
1668;DHT22;832;47.956;7.864;2022-08-05T09:11:03;28.30;1.00
1668;DHT22;832;47.956;7.864;2022-08-05T09:13:29;28.40;1.00
1668;DHT22;832;47.956;7.864;2022-08-05T09:15:55;28.50;1.00
1668;DHT22;832;47.956;7.864;2022-08-05T09:18:21;28.50;1.00
1668;DHT22;832;47.956;7.864;2022-08-05T09:20:46;28.60;1.00
1668;DHT22;832;47.956;7.864;2022-08-05T09:23:17;28.60;1.00
1668;DHT22;832;47.956;7.864;2022-08-05T09:25:46;28.90;1.00
1668;DHT22;832;47.956;7.864;2022-08-05T09:28:16;28.90;1.00
1668;DHT22;832;47.956;7.864;2022-08-05T09:30:44;29.20;1.00
1668;DHT22;832;47.956;7.864;2022-08-05T09:33:16;29.40;1.00
1668;DHT22;832;47.956;7.864;2022-08-05T09:38:20;29.60;1.00
1668;DHT22;832;47.956;7.864;2022-08-05T09:40:46;29.70;1.00
1668;DHT22;832;47.956;7.864;2022-08-05T09:43:30;29.90;1.00
1668;DHT22;832;47.956;7.864;2022-08-05T09:45:55;29.90;1.00
1668;DHT22;832;47.956;7.864;2022-08-05T09:48:27;29.80;1.00
1668;DHT22;832;47.956;7.864;2022-08-05T09:50:57;30.10;1.00
1668;DHT22;832;47.956;7.864;2022-08-05T09:53:23;30.20;1.00
1668;DHT22;832;47.956;7.864;2022-08-05T09:55:59;30.50;1.00
1668;DHT22;832;47.956;7.864;2022-08-05T09:58:25;30.60;1.00
1668;DHT22;832;47.956;7.864;2022-08-05T10:01:05;30.70;1.00
1668;DHT22;832;47.956;7.864;2022-08-05T10:03:32;30.70;1.00
1668;DHT22;832;47.956;7.864;2022-08-05T10:06:06;30.70;1.00
1668;DHT22;832;47.956;7.864;2022-08-05T10:08:33;30.70;1.00
1668;DHT22;832;47.956;7.864;2022-08-05T10:10:59;30.80;1.00
1668;DHT22;832;47.956;7.864;2022-08-05T10:13:27;31.00;1.00
1668;DHT22;832;47.956;7.864;2022-08-05T10:15:53;31.20;1.00
1668;DHT22;832;47.956;7.864;2022-08-05T10:18:20;31.30;1.00
1668;DHT22;832;47.956;7.864;2022-08-05T10:25:54;31.70;1.00
1668;DHT22;832;47.956;7.864;2022-08-05T10:28:20;31.80;1.00
1668;DHT22;832;47.956;7.864;2022-08-05T10:30:46;31.90;1.00
1668;DHT22;832;47.956;7.864;2022-08-05T10:33:11;31.90;1.00
1668;DHT22;832;47.956;7.864;2022-08-05T10:35:37;32.10;1.00
1668;DHT22;832;47.956;7.864;2022-08-05T10:38:04;32.20;1.00
1668;DHT22;832;47.956;7.864;2022-08-05T10:45:58;32.50;1.00
1668;DHT22;832;47.956;7.864;2022-08-05T10:51:03;32.60;1.00
1668;DHT22;832;47.956;7.864;2022-08-05T10:53:39;32.50;1.00
1668;DHT22;832;47.956;7.864;2022-08-05T10:56:28;32.30;1.00
1668;DHT22;832;47.956;7.864;2022-08-05T11:01:27;32.60;1.00
1668;DHT22;832;47.956;7.864;2022-08-05T11:04:26;32.70;1.00
1668;DHT22;832;47.956;7.864;2022-08-05T11:09:26;32.90;1.00
1668;DHT22;832;47.956;7.864;2022-08-05T11:11:53;33.00;1.00
1668;DHT22;832;47.956;7.864;2022-08-05T11:14:27;33.10;1.00
1668;DHT22;832;47.956;7.864;2022-08-05T11:17:26;33.00;1.00
1668;DHT22;832;47.956;7.864;2022-08-05T11:19:54;33.00;1.00
1668;DHT22;832;47.956;7.864;2022-08-05T11:22:41;33.00;1.00
1668;DHT22;832;47.956;7.864;2022-08-05T11:25:30;33.00;1.00
1668;DHT22;832;47.956;7.864;2022-08-05T11:33:25;33.10;1.00
1668;DHT22;832;47.956;7.864;2022-08-05T11:38:17;33.30;1.00
1668;DHT22;832;47.956;7.864;2022-08-05T11:41:00;33.30;1.00
1668;DHT22;832;47.956;7.864;2022-08-05T11:43:26;33.50;1.00
1668;DHT22;832;47.956;7.864;2022-08-05T11:45:53;33.40;1.00
1668;DHT22;832;47.956;7.864;2022-08-05T11:48:19;33.40;1.00
1668;DHT22;832;47.956;7.864;2022-08-05T11:50:47;33.60;1.00
1668;DHT22;832;47.956;7.864;2022-08-05T11:53:13;33.70;1.00
1668;DHT22;832;47.956;7.864;2022-08-05T11:55:56;33.70;1.00
1668;DHT22;832;47.956;7.864;2022-08-05T11:58:40;33.60;1.00
1668;DHT22;832;47.956;7.864;2022-08-05T12:01:08;33.70;1.00
1668;DHT22;832;47.956;7.864;2022-08-05T12:06:11;33.60;1.00
1668;DHT22;832;47.956;7.864;2022-08-05T12:08:51;33.60;1.00
1668;DHT22;832;47.956;7.864;2022-08-05T12:11:28;33.80;1.00
1668;DHT22;832;47.956;7.864;2022-08-05T12:13:55;33.80;1.00
1668;DHT22;832;47.956;7.864;2022-08-05T12:16:21;33.80;1.00
1668;DHT22;832;47.956;7.864;2022-08-05T12:18:47;33.80;1.00
1668;DHT22;832;47.956;7.864;2022-08-05T12:21:17;33.80;1.00
1668;DHT22;832;47.956;7.864;2022-08-05T12:24:05;33.80;1.00
1668;DHT22;832;47.956;7.864;2022-08-05T12:26:35;33.80;1.00
1668;DHT22;832;47.956;7.864;2022-08-05T12:29:06;33.90;1.00
1668;DHT22;832;47.956;7.864;2022-08-05T12:31:33;33.90;1.00
1668;DHT22;832;47.956;7.864;2022-08-05T12:34:04;33.70;1.00
1668;DHT22;832;47.956;7.864;2022-08-05T12:36:31;33.80;1.00
1668;DHT22;832;47.956;7.864;2022-08-05T12:38:57;33.80;1.00
1668;DHT22;832;47.956;7.864;2022-08-05T12:41:29;34.00;1.00
1668;DHT22;832;47.956;7.864;2022-08-05T12:43:57;33.90;1.00
1668;DHT22;832;47.956;7.864;2022-08-05T12:46:31;33.80;1.00
1668;DHT22;832;47.956;7.864;2022-08-05T12:51:29;34.00;1.00
1668;DHT22;832;47.956;7.864;2022-08-05T12:54:02;34.00;1.00
1668;DHT22;832;47.956;7.864;2022-08-05T12:56:29;34.00;1.00
1668;DHT22;832;47.956;7.864;2022-08-05T12:59:14;34.10;1.00
1668;DHT22;832;47.956;7.864;2022-08-05T13:04:37;34.10;1.00
1668;DHT22;832;47.956;7.864;2022-08-05T13:07:08;34.20;1.00
1668;DHT22;832;47.956;7.864;2022-08-05T13:09:42;34.00;1.00
1668;DHT22;832;47.956;7.864;2022-08-05T13:12:13;34.00;1.00
1668;DHT22;832;47.956;7.864;2022-08-05T13:14:42;34.10;1.00
1668;DHT22;832;47.956;7.864;2022-08-05T13:17:15;34.20;1.00
1668;DHT22;832;47.956;7.864;2022-08-05T13:20:06;34.20;1.00
1668;DHT22;832;47.956;7.864;2022-08-05T13:22:36;34.10;1.00
1668;DHT22;832;47.956;7.864;2022-08-05T13:25:05;34.10;1.00
1668;DHT22;832;47.956;7.864;2022-08-05T13:27:34;34.10;1.00
1668;DHT22;832;47.956;7.864;2022-08-05T13:30:00;34.00;1.00
1668;DHT22;832;47.956;7.864;2022-08-05T13:32:27;34.10;1.00
1668;DHT22;832;47.956;7.864;2022-08-05T13:34:53;34.00;1.00
1668;DHT22;832;47.956;7.864;2022-08-05T13:37:19;34.20;1.00
1668;DHT22;832;47.956;7.864;2022-08-05T13:39:46;34.20;1.00
1668;DHT22;832;47.956;7.864;2022-08-05T13:42:12;34.20;1.00
1668;DHT22;832;47.956;7.864;2022-08-05T13:44:37;34.20;1.00
1668;DHT22;832;47.956;7.864;2022-08-05T13:47:03;34.00;1.00
1668;DHT22;832;47.956;7.864;2022-08-05T13:49:29;33.90;1.00
1668;DHT22;832;47.956;7.864;2022-08-05T13:51:55;33.70;1.00
1668;DHT22;832;47.956;7.864;2022-08-05T13:54:21;33.60;1.00
1668;DHT22;832;47.956;7.864;2022-08-05T13:56:46;33.40;1.00
1668;DHT22;832;47.956;7.864;2022-08-05T13:59:12;33.30;1.00
1668;DHT22;832;47.956;7.864;2022-08-05T14:01:38;33.30;1.00
1668;DHT22;832;47.956;7.864;2022-08-05T14:04:05;33.10;1.00
1668;DHT22;832;47.956;7.864;2022-08-05T14:06:49;32.80;1.00
1668;DHT22;832;47.956;7.864;2022-08-05T14:09:14;32.80;1.00
1668;DHT22;832;47.956;7.864;2022-08-05T14:11:40;32.80;1.00
1668;DHT22;832;47.956;7.864;2022-08-05T14:14:07;32.90;1.00
1668;DHT22;832;47.956;7.864;2022-08-05T14:16:33;32.70;1.00
1668;DHT22;832;47.956;7.864;2022-08-05T14:18:59;32.60;1.00
1668;DHT22;832;47.956;7.864;2022-08-05T14:21:25;32.50;1.00
1668;DHT22;832;47.956;7.864;2022-08-05T14:23:51;32.40;1.00
1668;DHT22;832;47.956;7.864;2022-08-05T14:26:16;32.40;1.00
1668;DHT22;832;47.956;7.864;2022-08-05T14:28:42;32.30;1.00
1668;DHT22;832;47.956;7.864;2022-08-05T14:31:08;32.20;1.00
1668;DHT22;832;47.956;7.864;2022-08-05T14:33:33;32.20;1.00
1668;DHT22;832;47.956;7.864;2022-08-05T14:35:59;32.10;1.00
1668;DHT22;832;47.956;7.864;2022-08-05T14:38:26;32.00;1.00
1668;DHT22;832;47.956;7.864;2022-08-05T14:40:52;31.90;1.00
1668;DHT22;832;47.956;7.864;2022-08-05T14:43:17;31.90;1.00
1668;DHT22;832;47.956;7.864;2022-08-05T14:45:43;31.80;1.00
1668;DHT22;832;47.956;7.864;2022-08-05T14:48:08;31.60;1.00
1668;DHT22;832;47.956;7.864;2022-08-05T14:50:34;31.60;1.00
1668;DHT22;832;47.956;7.864;2022-08-05T14:52:59;31.50;1.00
1668;DHT22;832;47.956;7.864;2022-08-05T14:55:26;31.40;1.00
1668;DHT22;832;47.956;7.864;2022-08-05T14:57:52;31.30;1.00
1668;DHT22;832;47.956;7.864;2022-08-05T15:00:17;31.30;1.00
1668;DHT22;832;47.956;7.864;2022-08-05T15:02:43;31.20;1.00
1668;DHT22;832;47.956;7.864;2022-08-05T15:05:09;31.10;1.00
1668;DHT22;832;47.956;7.864;2022-08-05T15:07:34;31.00;1.00
1668;DHT22;832;47.956;7.864;2022-08-05T15:10:00;30.90;1.00
1668;DHT22;832;47.956;7.864;2022-08-05T15:12:26;30.80;1.00
1668;DHT22;832;47.956;7.864;2022-08-05T15:14:51;30.80;1.00
1668;DHT22;832;47.956;7.864;2022-08-05T15:17:18;30.60;1.00
1668;DHT22;832;47.956;7.864;2022-08-05T15:19:43;30.60;1.00
1668;DHT22;832;47.956;7.864;2022-08-05T15:22:09;30.50;1.00
1668;DHT22;832;47.956;7.864;2022-08-05T15:24:34;30.40;1.00
1668;DHT22;832;47.956;7.864;2022-08-05T15:27:00;30.30;1.00
1668;DHT22;832;47.956;7.864;2022-08-05T15:29:26;30.20;1.00
1668;DHT22;832;47.956;7.864;2022-08-05T15:31:51;30.10;1.00
1668;DHT22;832;47.956;7.864;2022-08-05T15:34:17;30.10;1.00
1668;DHT22;832;47.956;7.864;2022-08-05T15:36:42;30.00;1.00
1668;DHT22;832;47.956;7.864;2022-08-05T15:39:08;29.90;1.00
1668;DHT22;832;47.956;7.864;2022-08-05T15:41:34;29.80;1.00
1668;DHT22;832;47.956;7.864;2022-08-05T15:43:59;29.70;1.00
1668;DHT22;832;47.956;7.864;2022-08-05T15:46:25;29.70;1.00
1668;DHT22;832;47.956;7.864;2022-08-05T15:48:51;29.60;1.00
1668;DHT22;832;47.956;7.864;2022-08-05T15:51:17;29.50;1.00
1668;DHT22;832;47.956;7.864;2022-08-05T15:53:47;29.50;1.00
1668;DHT22;832;47.956;7.864;2022-08-05T15:56:13;29.40;1.00
1668;DHT22;832;47.956;7.864;2022-08-05T15:58:39;29.30;1.00
1668;DHT22;832;47.956;7.864;2022-08-05T16:01:06;29.30;1.00
1668;DHT22;832;47.956;7.864;2022-08-05T16:03:37;29.20;1.00
1668;DHT22;832;47.956;7.864;2022-08-05T16:06:02;29.10;1.00
1668;DHT22;832;47.956;7.864;2022-08-05T16:08:28;29.20;1.00
1668;DHT22;832;47.956;7.864;2022-08-05T16:10:53;29.10;1.00
1668;DHT22;832;47.956;7.864;2022-08-05T16:13:19;29.10;1.00
1668;DHT22;832;47.956;7.864;2022-08-05T16:15:45;29.00;1.00
1668;DHT22;832;47.956;7.864;2022-08-05T16:18:10;28.90;1.00
1668;DHT22;832;47.956;7.864;2022-08-05T16:20:36;28.90;1.00
1668;DHT22;832;47.956;7.864;2022-08-05T16:23:02;28.90;1.00
1668;DHT22;832;47.956;7.864;2022-08-05T16:25:28;28.80;1.00
1668;DHT22;832;47.956;7.864;2022-08-05T16:27:53;28.70;1.00
1668;DHT22;832;47.956;7.864;2022-08-05T16:30:19;28.70;1.00
1668;DHT22;832;47.956;7.864;2022-08-05T16:32:44;28.70;1.00
1668;DHT22;832;47.956;7.864;2022-08-05T16:35:10;28.60;1.00
1668;DHT22;832;47.956;7.864;2022-08-05T16:37:36;28.40;1.00
1668;DHT22;832;47.956;7.864;2022-08-05T16:40:05;28.40;1.00
1668;DHT22;832;47.956;7.864;2022-08-05T16:42:31;28.30;1.00
1668;DHT22;832;47.956;7.864;2022-08-05T16:44:57;28.30;1.00
1668;DHT22;832;47.956;7.864;2022-08-05T16:47:22;28.20;1.00
1668;DHT22;832;47.956;7.864;2022-08-05T16:49:48;28.20;1.00
1668;DHT22;832;47.956;7.864;2022-08-05T16:52:13;28.10;1.00
1668;DHT22;832;47.956;7.864;2022-08-05T16:54:39;28.10;1.00
1668;DHT22;832;47.956;7.864;2022-08-05T16:57:05;28.00;1.00
1668;DHT22;832;47.956;7.864;2022-08-05T16:59:30;28.10;1.00
1668;DHT22;832;47.956;7.864;2022-08-05T17:01:56;28.00;1.00
1668;DHT22;832;47.956;7.864;2022-08-05T17:04:23;28.10;1.00
1668;DHT22;832;47.956;7.864;2022-08-05T17:06:49;28.00;1.00
1668;DHT22;832;47.956;7.864;2022-08-05T17:09:15;28.00;1.00
1668;DHT22;832;47.956;7.864;2022-08-05T17:11:41;27.90;1.00
1668;DHT22;832;47.956;7.864;2022-08-05T17:14:06;27.90;1.00
1668;DHT22;832;47.956;7.864;2022-08-05T17:16:36;27.80;1.00
1668;DHT22;832;47.956;7.864;2022-08-05T17:19:03;27.80;1.00
1668;DHT22;832;47.956;7.864;2022-08-05T17:21:29;27.60;1.00
1668;DHT22;832;47.956;7.864;2022-08-05T17:23:54;27.60;1.00
1668;DHT22;832;47.956;7.864;2022-08-05T17:26:22;27.60;1.00